Time,TemperatureF,DewpointF,PressureIn,WindDirection,WindDirectionDegrees,WindSpeedMPH,WindSpeedGustMPH,Humidity,HourlyPrecipIn,Conditions,Clouds,dailyrainin,SoftwareType,DateUTC
2013-05-14 00:00:00,49.7,36.0,30.09,East,95,0.0,1.0,59,0.00,,,0.00,weatherlink.com 1.10,2013-05-14 04:00:00,
2013-05-14 00:15:00,51.6,37.0,30.09,SE,145,0.0,3.0,58,0.00,,,0.00,weatherlink.com 1.10,2013-05-14 04:15:00,
2013-05-14 00:30:00,51.4,38.0,30.07,ESE,114,0.0,4.0,61,0.00,,,0.00,weatherlink.com 1.10,2013-05-14 04:30:00,
2013-05-14 00:45:00,51.7,37.0,30.08,East,87,2.0,3.0,57,0.00,,,0.00,weatherlink.com 1.10,2013-05-14 04:45:00,
2013-05-14 01:00:00,52.2,37.0,30.09,ENE,71,0.0,1.0,56,0.00,,,0.00,weatherlink.com 1.10,2013-05-14 05:00:00,
2013-05-14 01:15:00,52.9,37.0,30.08,SW,215,0.0,2.0,56,0.00,,,0.00,weatherlink.com 1.10,2013-05-14 05:15:00,
2013-05-14 01:30:00,52.0,41.0,30.08,SW,214,0.0,0.0,66,0.00,,,0.00,weatherlink.com 1.10,2013-05-14 05:30:00,
2013-05-14 01:45:00,51.0,38.0,30.08,ESE,107,0.0,2.0,61,0.00,,,0.00,weatherlink.com 1.10,2013-05-14 05:45:00,
2013-05-14 02:00:00,51.1,37.0,30.07,ESE,104,0.0,2.0,59,0.00,,,0.00,weatherlink.com 1.10,2013-05-14 06:00:00,
2013-05-14 02:15:00,50.4,36.0,30.07,ESE,111,1.0,2.0,59,0.00,,,0.00,weatherlink.com 1.10,2013-05-14 06:15:00,
2013-05-14 02:30:00,50.9,38.0,30.06,SE,145,0.0,2.0,62,0.00,,,0.00,weatherlink.com 1.10,2013-05-14 06:30:00,
2013-05-14 02:46:00,49.4,38.0,30.06,SSE,150,0.0,3.0,64,0.00,,,0.00,weatherlink.com 1.10,2013-05-14 06:46:00,
2013-05-14 03:01:00,49.7,36.0,30.05,ESE,117,0.0,3.0,60,0.00,,,0.00,weatherlink.com 1.10,2013-05-14 07:01:00,
2013-05-14 03:16:00,49.7,38.0,30.05,ESE,108,0.0,4.0,64,0.00,,,0.00,weatherlink.com 1.10,2013-05-14 07:16:00,
2013-05-14 03:31:00,50.1,37.0,30.05,SE,128,1.0,2.0,61,0.00,,,0.00,weatherlink.com 1.10,2013-05-14 07:31:00,
2013-05-14 03:46:00,49.6,37.0,30.05,SE,125,0.0,2.0,62,0.00,,,0.00,weatherlink.com 1.10,2013-05-14 07:46:00,
2013-05-14 04:01:00,49.7,37.0,30.04,SSE,165,0.0,3.0,61,0.00,,,0.00,weatherlink.com 1.10,2013-05-14 08:01:00,
2013-05-14 04:16:00,49.3,37.0,30.04,ESE,111,1.0,4.0,63,0.00,,,0.00,weatherlink.com 1.10,2013-05-14 08:16:00,
2013-05-14 04:31:00,49.2,37.0,30.03,ESE,120,2.0,4.0,62,0.00,,,0.00,weatherlink.com 1.10,2013-05-14 08:31:00,
2013-05-14 04:46:00,48.9,36.0,30.02,ESE,121,1.0,4.0,62,0.00,,,0.00,weatherlink.com 1.10,2013-05-14 08:46:00,
2013-05-14 05:01:00,49.3,36.0,30.02,ESE,105,1.0,3.0,61,0.00,,,0.00,weatherlink.com 1.10,2013-05-14 09:01:00,
2013-05-14 05:16:00,49.2,36.0,30.01,SSE,150,2.0,3.0,61,0.00,,,0.00,weatherlink.com 1.10,2013-05-14 09:16:00,
2013-05-14 05:31:00,49.2,37.0,30.01,ESE,117,2.0,4.0,62,0.00,,,0.00,weatherlink.com 1.10,2013-05-14 09:31:00,
2013-05-14 05:46:00,49.3,36.0,30.01,SE,136,1.0,4.0,61,0.00,,,0.00,weatherlink.com 1.10,2013-05-14 09:46:00,
2013-05-14 06:01:00,49.5,36.0,30.00,SE,137,2.0,5.0,61,0.00,,,0.00,weatherlink.com 1.10,2013-05-14 10:01:00,
2013-05-14 06:16:00,50.0,36.0,30.01,ESE,115,1.0,7.0,59,0.00,,,0.00,weatherlink.com 1.10,2013-05-14 10:16:00,
2013-05-14 06:31:00,50.5,36.0,30.00,SSW,200,0.0,6.0,58,0.00,,,0.00,weatherlink.com 1.10,2013-05-14 10:31:00,
2013-05-14 06:46:00,50.8,36.0,30.01,ESE,104,2.0,8.0,58,0.00,,,0.00,weatherlink.com 1.10,2013-05-14 10:46:00,
2013-05-14 07:01:00,50.5,36.0,30.00,SE,131,2.0,6.0,59,0.00,,,0.00,weatherlink.com 1.10,2013-05-14 11:01:00,
2013-05-14 07:16:00,50.8,36.0,30.00,SE,131,2.0,8.0,58,0.00,,,0.00,weatherlink.com 1.10,2013-05-14 11:16:00,
2013-05-14 07:32:00,52.5,37.0,30.00,ESE,114,4.0,7.0,57,0.00,,,0.00,weatherlink.com 1.10,2013-05-14 11:32:00,
2013-05-14 07:46:00,53.8,37.0,30.00,ESE,122,5.0,6.0,54,0.00,,,0.00,weatherlink.com 1.10,2013-05-14 11:46:00,
2013-05-14 08:01:00,54.9,38.0,30.00,SE,131,2.0,9.0,53,0.00,,,0.00,weatherlink.com 1.10,2013-05-14 12:01:00,
2013-05-14 08:16:00,56.3,38.0,30.00,SE,139,2.0,8.0,51,0.00,,,0.00,weatherlink.com 1.10,2013-05-14 12:16:00,
2013-05-14 08:31:00,57.4,39.0,29.99,ESE,112,3.0,12.0,51,0.00,,,0.00,weatherlink.com 1.10,2013-05-14 12:31:00,
2013-05-14 08:46:00,58.7,40.0,29.98,ESE,105,6.0,8.0,50,0.00,,,0.00,weatherlink.com 1.10,2013-05-14 12:46:00,
2013-05-14 09:01:00,59.4,41.0,29.98,SE,128,2.0,13.0,50,0.00,,,0.00,weatherlink.com 1.10,2013-05-14 13:01:00,
2013-05-14 09:16:00,60.8,42.0,29.97,SE,124,4.0,9.0,50,0.00,,,0.00,weatherlink.com 1.10,2013-05-14 13:16:00,
2013-05-14 09:31:00,62.1,43.0,29.96,ESE,102,3.0,10.0,49,0.00,,,0.00,weatherlink.com 1.10,2013-05-14 13:31:00,
2013-05-14 09:47:00,63.8,44.0,29.95,WSW,239,4.0,11.0,49,0.00,,,0.00,weatherlink.com 1.10,2013-05-14 13:47:00,
2013-05-14 10:03:00,65.3,46.0,29.95,SSE,162,1.0,10.0,50,0.00,,,0.00,weatherlink.com 1.10,2013-05-14 14:03:00,
2013-05-14 10:17:00,65.8,46.0,29.94,NW,322,4.0,14.0,50,0.00,,,0.00,weatherlink.com 1.10,2013-05-14 14:17:00,
2013-05-14 10:32:00,66.7,47.0,29.94,East,101,7.0,12.0,49,0.00,,,0.00,weatherlink.com 1.10,2013-05-14 14:32:00,
2013-05-14 10:47:00,67.5,48.0,29.93,ESE,120,4.0,9.0,50,0.00,,,0.00,weatherlink.com 1.10,2013-05-14 14:47:00,
2013-05-14 11:02:00,68.0,49.0,29.93,SSE,158,3.0,12.0,50,0.00,,,0.00,weatherlink.com 1.10,2013-05-14 15:02:00,
2013-05-14 11:17:00,68.7,49.0,29.92,ENE,75,3.0,12.0,49,0.00,,,0.00,weatherlink.com 1.10,2013-05-14 15:17:00,
2013-05-14 11:32:00,70.0,51.0,29.91,ESE,104,5.0,8.0,51,0.00,,,0.00,weatherlink.com 1.10,2013-05-14 15:32:00,
2013-05-14 11:47:00,71.4,53.0,29.91,WNW,288,1.0,12.0,52,0.00,,,0.00,weatherlink.com 1.10,2013-05-14 15:47:00,
2013-05-14 12:02:00,72.8,52.0,29.90,WNW,283,2.0,11.0,48,0.00,,,0.00,weatherlink.com 1.10,2013-05-14 16:02:00,
2013-05-14 12:17:00,73.5,52.0,29.89,ESE,117,2.0,12.0,48,0.00,,,0.00,weatherlink.com 1.10,2013-05-14 16:17:00,
2013-05-14 12:32:00,74.5,53.0,29.89,ESE,117,5.0,10.0,48,0.00,,,0.00,weatherlink.com 1.10,2013-05-14 16:32:00,
2013-05-14 12:47:00,75.9,55.0,29.89,SE,141,5.0,9.0,48,0.00,,,0.00,weatherlink.com 1.10,2013-05-14 16:47:00,
2013-05-14 13:02:00,77.7,55.0,29.88,WSW,252,3.0,9.0,46,0.00,,,0.00,weatherlink.com 1.10,2013-05-14 17:02:00,
2013-05-14 13:17:00,78.2,56.0,29.88,ESE,120,4.0,7.0,46,0.00,,,0.00,weatherlink.com 1.10,2013-05-14 17:17:00,
2013-05-14 13:32:00,79.6,56.0,29.87,NNW,332,9.0,9.0,45,0.00,,,0.00,weatherlink.com 1.10,2013-05-14 17:32:00,
2013-05-14 13:47:00,79.6,56.0,29.86,NE,37,2.0,10.0,45,0.00,,,0.00,weatherlink.com 1.10,2013-05-14 17:47:00,
2013-05-14 14:02:00,79.5,57.0,29.84,SE,126,5.0,20.0,46,0.00,,,0.00,weatherlink.com 1.10,2013-05-14 18:02:00,
2013-05-14 14:17:00,79.8,59.0,29.84,ESE,113,2.0,11.0,50,0.00,,,0.00,weatherlink.com 1.10,2013-05-14 18:17:00,
2013-05-14 14:33:00,80.6,58.0,29.83,SE,139,6.0,13.0,46,0.00,,,0.00,weatherlink.com 1.10,2013-05-14 18:33:00,
2013-05-14 14:48:00,81.5,58.0,29.82,ENE,72,2.0,10.0,45,0.00,,,0.00,weatherlink.com 1.10,2013-05-14 18:48:00,
2013-05-14 15:03:00,81.9,60.0,29.81,North,356,2.0,9.0,48,0.00,,,0.00,weatherlink.com 1.10,2013-05-14 19:03:00,
2013-05-14 15:18:00,82.2,59.0,29.81,ESE,117,12.0,12.0,45,0.00,,,0.00,weatherlink.com 1.10,2013-05-14 19:18:00,
2013-05-14 15:33:00,82.3,59.0,29.80,SSE,148,7.0,10.0,46,0.00,,,0.00,weatherlink.com 1.10,2013-05-14 19:33:00,
2013-05-14 15:48:00,82.0,60.0,29.80,SSE,148,5.0,11.0,47,0.00,,,0.00,weatherlink.com 1.10,2013-05-14 19:48:00,
2013-05-14 16:03:00,82.6,60.0,29.80,ENE,78,2.0,11.0,46,0.00,,,0.00,weatherlink.com 1.10,2013-05-14 20:03:00,
2013-05-14 16:18:00,82.3,60.0,29.80,WSW,246,1.0,9.0,47,0.00,,,0.00,weatherlink.com 1.10,2013-05-14 20:18:00,
2013-05-14 16:33:00,82.6,60.0,29.79,East,96,2.0,11.0,47,0.00,,,0.00,weatherlink.com 1.10,2013-05-14 20:33:00,
2013-05-14 16:48:00,82.8,60.0,29.79,SSW,198,4.0,8.0,46,0.00,,,0.00,weatherlink.com 1.10,2013-05-14 20:48:00,
2013-05-14 17:03:00,83.0,60.0,29.79,NW,310,4.0,10.0,46,0.00,,,0.00,weatherlink.com 1.10,2013-05-14 21:03:00,
2013-05-14 17:18:00,83.0,60.0,29.80,East,84,8.0,9.0,46,0.00,,,0.00,weatherlink.com 1.10,2013-05-14 21:18:00,
2013-05-14 17:33:00,82.8,59.0,29.80,NNE,33,4.0,14.0,45,0.00,,,0.00,weatherlink.com 1.10,2013-05-14 21:33:00,
2013-05-14 17:48:00,82.8,61.0,29.80,East,90,1.0,10.0,47,0.00,,,0.00,weatherlink.com 1.10,2013-05-14 21:48:00,
2013-05-14 18:03:00,82.3,61.0,29.79,NE,35,4.0,7.0,48,0.00,,,0.00,weatherlink.com 1.10,2013-05-14 22:03:00,
2013-05-14 18:18:00,82.1,60.0,29.79,NNE,33,4.0,8.0,48,0.00,,,0.00,weatherlink.com 1.10,2013-05-14 22:18:00,
2013-05-14 18:33:00,81.9,61.0,29.80,NNW,346,3.0,8.0,49,0.00,,,0.00,weatherlink.com 1.10,2013-05-14 22:33:00,
2013-05-14 18:48:00,81.4,60.0,29.79,SSE,156,6.0,7.0,48,0.00,,,0.00,weatherlink.com 1.10,2013-05-14 22:48:00,
2013-05-14 19:03:00,81.2,61.0,29.79,NNE,23,2.0,6.0,50,0.00,,,0.00,weatherlink.com 1.10,2013-05-14 23:03:00,
2013-05-14 19:18:00,81.3,61.0,29.79,East,101,2.0,6.0,50,0.00,,,0.00,weatherlink.com 1.10,2013-05-14 23:18:00,
2013-05-14 19:33:00,80.2,60.0,29.78,SSE,163,0.0,7.0,51,0.00,,,0.00,weatherlink.com 1.10,2013-05-14 23:33:00,
2013-05-14 19:49:00,79.2,61.0,29.78,East,82,2.0,4.0,53,0.00,,,0.00,weatherlink.com 1.10,2013-05-14 23:49:00,
2013-05-14 20:03:00,78.5,60.0,29.78,East,98,2.0,5.0,54,0.00,,,0.00,weatherlink.com 1.10,2013-05-15 00:03:00,
2013-05-14 20:18:00,77.9,60.0,29.78,ESE,105,3.0,4.0,55,0.00,,,0.00,weatherlink.com 1.10,2013-05-15 00:18:00,
2013-05-14 20:33:00,77.0,60.0,29.78,ESE,103,3.0,5.0,57,0.00,,,0.00,weatherlink.com 1.10,2013-05-15 00:33:00,
2013-05-14 20:48:00,76.3,60.0,29.78,SW,232,1.0,4.0,58,0.00,,,0.00,weatherlink.com 1.10,2013-05-15 00:48:00,
2013-05-14 21:03:00,75.5,61.0,29.79,South,181,1.0,4.0,60,0.00,,,0.00,weatherlink.com 1.10,2013-05-15 01:03:00,
2013-05-14 21:18:00,75.2,60.0,29.79,WSW,240,1.0,5.0,60,0.00,,,0.00,weatherlink.com 1.10,2013-05-15 01:18:00,
2013-05-14 21:33:00,74.6,60.0,29.79,SW,218,1.0,3.0,61,0.00,,,0.00,weatherlink.com 1.10,2013-05-15 01:33:00,
2013-05-14 21:48:00,74.1,60.0,29.79,ESE,120,1.0,4.0,62,0.00,,,0.00,weatherlink.com 1.10,2013-05-15 01:48:00,
2013-05-14 22:03:00,73.6,60.0,29.79,ESE,105,2.0,3.0,62,0.00,,,0.00,weatherlink.com 1.10,2013-05-15 02:03:00,
2013-05-14 22:18:00,73.3,60.0,29.80,SE,145,1.0,4.0,63,0.00,,,0.00,weatherlink.com 1.10,2013-05-15 02:18:00,
2013-05-14 22:33:00,72.6,60.0,29.80,SE,134,1.0,3.0,64,0.00,,,0.00,weatherlink.com 1.10,2013-05-15 02:33:00,
2013-05-14 22:48:00,72.4,59.0,29.80,ESE,120,1.0,4.0,64,0.00,,,0.00,weatherlink.com 1.10,2013-05-15 02:48:00,
2013-05-14 23:03:00,72.0,60.0,29.80,SE,139,1.0,3.0,65,0.00,,,0.00,weatherlink.com 1.10,2013-05-15 03:03:00,
2013-05-14 23:18:00,71.6,59.0,29.80,East,84,0.0,5.0,65,0.00,,,0.00,weatherlink.com 1.10,2013-05-15 03:18:00,
2013-05-14 23:33:00,71.5,59.0,29.80,ESE,102,3.0,5.0,65,0.00,,,0.00,weatherlink.com 1.10,2013-05-15 03:33:00,
2013-05-14 23:48:00,71.2,59.0,29.80,SSE,148,1.0,4.0,66,0.00,,,0.00,weatherlink.com 1.10,2013-05-15 03:48:00,